PPDSL SBUL-SIQE
Flight info
| Callsign | PPDSL |
|---|---|
| Flight time | 1h 17m |
| Altitude | 9000 |
| Route | DCT EGUNU KEVOP LUZ/N0180F075 1607S04757W/N0180VFR REA DCT |
| Aircraft | C208/L-SDFGR/C |
Departure
| Time | 2026-05-06 18:54 |
|---|---|
| Airport | Ten. Cel. Aviador César Bombonato Airport (SBUL) |
Arrival
| Time | 2026-05-06 20:11 |
|---|---|
| Airport | Botelho Airport (SIQE) |
| Time | Latitude | Longitude | Altitude | Speed | Heading |
|---|---|---|---|---|---|
| 2026-05-06 18:48 | -18.88818 | -48.22982 | 3099 ft | 0 kts | 334° |
| 2026-05-06 18:52 | -18.88782 | -48.22963 | 3099 ft | 9 kts | 94° |
| 2026-05-06 18:53 | -18.88802 | -48.22913 | 3099 ft | 5 kts | 133° |
| 2026-05-06 18:53 | -18.88802 | -48.22882 | 3099 ft | 5 kts | 64° |
| 2026-05-06 18:53 | -18.88764 | -48.22790 | 3100 ft | 21 kts | 62° |
| 2026-05-06 18:53 | -18.88505 | -48.22655 | 3100 ft | 73 kts | 22° |
| 2026-05-06 18:54 | -18.87918 | -48.22381 | 3203 ft | 101 kts | 30° |
| 2026-05-06 18:54 | -18.87252 | -48.22126 | 3593 ft | 94 kts | 21° |
| 2026-05-06 18:54 | -18.86582 | -48.21913 | 3770 ft | 113 kts | 21° |
| 2026-05-06 18:54 | -18.85785 | -48.21630 | 3915 ft | 122 kts | 22° |
| 2026-05-06 18:55 | -18.84952 | -48.21617 | 4339 ft | 118 kts | 1° |
| 2026-05-06 18:55 | -18.84142 | -48.21515 | 4655 ft | 118 kts | 14° |
| 2026-05-06 18:55 | -18.83337 | -48.21356 | 5022 ft | 121 kts | 15° |
| 2026-05-06 18:55 | -18.82472 | -48.21166 | 5238 ft | 129 kts | 15° |
| 2026-05-06 18:56 | -18.81606 | -48.20969 | 5550 ft | 126 kts | 16° |
| 2026-05-06 18:56 | -18.80756 | -48.20782 | 5861 ft | 128 kts | 15° |
| 2026-05-06 18:56 | -18.79881 | -48.20583 | 6127 ft | 128 kts | 16° |
| 2026-05-06 18:56 | -18.79016 | -48.20383 | 6440 ft | 127 kts | 15° |
| 2026-05-06 18:57 | -18.78147 | -48.20178 | 6691 ft | 128 kts | 15° |
| 2026-05-06 18:57 | -18.77277 | -48.19979 | 6961 ft | 128 kts | 15° |
| 2026-05-06 18:57 | -18.76401 | -48.19778 | 7170 ft | 130 kts | 15° |
| 2026-05-06 18:57 | -18.75515 | -48.19573 | 7391 ft | 130 kts | 15° |
| 2026-05-06 18:58 | -18.74631 | -48.19369 | 7598 ft | 130 kts | 15° |
| 2026-05-06 18:58 | -18.73737 | -48.19166 | 7810 ft | 132 kts | 15° |
| 2026-05-06 18:58 | -18.72847 | -48.18959 | 8037 ft | 131 kts | 14° |
| 2026-05-06 18:58 | -18.71969 | -48.18758 | 8258 ft | 132 kts | 15° |
| 2026-05-06 18:59 | -18.71059 | -48.18547 | 8453 ft | 133 kts | 16° |
| 2026-05-06 18:59 | -18.70156 | -48.18339 | 8687 ft | 133 kts | 15° |
| 2026-05-06 18:59 | -18.69251 | -48.18131 | 8902 ft | 133 kts | 16° |
| 2026-05-06 18:59 | -18.68341 | -48.17920 | 9074 ft | 134 kts | 16° |
| 2026-05-06 19:00 | -18.67402 | -48.17704 | 9146 ft | 144 kts | 14° |
| 2026-05-06 19:00 | -18.66384 | -48.17469 | 9151 ft | 153 kts | 15° |
| 2026-05-06 19:00 | -18.65326 | -48.17226 | 9136 ft | 157 kts | 15° |
| 2026-05-06 19:00 | -18.64614 | -48.17063 | 9137 ft | 159 kts | 15° |
| 2026-05-06 19:01 | -18.63167 | -48.16727 | 9126 ft | 162 kts | 15° |
| 2026-05-06 19:01 | -18.62061 | -48.16473 | 9125 ft | 163 kts | 15° |
| 2026-05-06 19:01 | -18.60944 | -48.16216 | 9112 ft | 164 kts | 15° |
| 2026-05-06 19:01 | -18.59828 | -48.15961 | 9107 ft | 165 kts | 15° |
| 2026-05-06 19:02 | -18.58708 | -48.15706 | 9104 ft | 164 kts | 15° |
| 2026-05-06 19:02 | -18.57585 | -48.15449 | 9098 ft | 166 kts | 15° |
| 2026-05-06 19:02 | -18.56459 | -48.15191 | 9089 ft | 166 kts | 15° |
| 2026-05-06 19:02 | -18.55332 | -48.14931 | 9076 ft | 166 kts | 16° |
| 2026-05-06 19:03 | -18.54205 | -48.14672 | 9068 ft | 166 kts | 15° |
| 2026-05-06 19:03 | -18.53076 | -48.14412 | 9063 ft | 166 kts | 15° |
| 2026-05-06 19:03 | -18.51950 | -48.14154 | 9064 ft | 165 kts | 15° |
| 2026-05-06 19:03 | -18.50830 | -48.13897 | 9067 ft | 165 kts | 15° |
| 2026-05-06 19:04 | -18.49711 | -48.13641 | 9070 ft | 164 kts | 15° |
| 2026-05-06 19:04 | -18.48603 | -48.13387 | 9063 ft | 162 kts | 15° |
| 2026-05-06 19:04 | -18.47493 | -48.13135 | 9061 ft | 164 kts | 15° |
| 2026-05-06 19:04 | -18.46381 | -48.12880 | 9061 ft | 164 kts | 15° |
| 2026-05-06 19:05 | -18.45257 | -48.12659 | 9066 ft | 165 kts | 9° |
| 2026-05-06 19:05 | -18.44115 | -48.12533 | 9065 ft | 165 kts | 9° |
| 2026-05-06 19:05 | -18.42975 | -48.12401 | 9064 ft | 165 kts | 9° |
| 2026-05-06 19:05 | -18.41838 | -48.12268 | 9066 ft | 164 kts | 9° |
| 2026-05-06 19:06 | -18.40718 | -48.12134 | 9066 ft | 164 kts | 9° |
| 2026-05-06 19:06 | -18.39582 | -48.11998 | 9060 ft | 164 kts | 9° |
| 2026-05-06 19:06 | -18.38449 | -48.11866 | 9070 ft | 165 kts | 9° |
| 2026-05-06 19:06 | -18.37306 | -48.11733 | 9065 ft | 165 kts | 9° |
| 2026-05-06 19:07 | -18.36163 | -48.11597 | 9070 ft | 166 kts | 9° |
| 2026-05-06 19:07 | -18.35403 | -48.11507 | 9066 ft | 166 kts | 9° |
| 2026-05-06 19:07 | -18.33869 | -48.11327 | 9071 ft | 165 kts | 9° |
| 2026-05-06 19:07 | -18.32726 | -48.11192 | 9066 ft | 164 kts | 9° |
| 2026-05-06 19:08 | -18.31590 | -48.11057 | 9067 ft | 164 kts | 9° |
| 2026-05-06 19:08 | -18.30473 | -48.10927 | 9066 ft | 163 kts | 9° |
| 2026-05-06 19:08 | -18.29343 | -48.10793 | 9057 ft | 163 kts | 9° |
| 2026-05-06 19:08 | -18.28211 | -48.10659 | 9070 ft | 164 kts | 10° |
| 2026-05-06 19:09 | -18.27074 | -48.10525 | 9065 ft | 165 kts | 9° |
| 2026-05-06 19:09 | -18.25935 | -48.10392 | 9071 ft | 164 kts | 9° |
| 2026-05-06 19:09 | -18.24796 | -48.10258 | 9069 ft | 165 kts | 9° |
| 2026-05-06 19:09 | -18.23653 | -48.10124 | 9063 ft | 165 kts | 9° |
| 2026-05-06 19:10 | -18.22509 | -48.09991 | 9064 ft | 165 kts | 9° |
| 2026-05-06 19:10 | -18.21367 | -48.09854 | 9064 ft | 165 kts | 9° |
| 2026-05-06 19:10 | -18.20223 | -48.09719 | 9067 ft | 165 kts | 9° |
| 2026-05-06 19:10 | -18.19091 | -48.09586 | 9066 ft | 166 kts | 9° |
| 2026-05-06 19:11 | -18.17946 | -48.09450 | 9067 ft | 165 kts | 9° |
| 2026-05-06 19:11 | -18.16799 | -48.09318 | 9067 ft | 166 kts | 10° |
| 2026-05-06 19:11 | -18.15651 | -48.09183 | 9069 ft | 166 kts | 9° |
| 2026-05-06 19:11 | -18.14498 | -48.09046 | 9065 ft | 167 kts | 9° |
| 2026-05-06 19:12 | -18.13339 | -48.08909 | 9060 ft | 168 kts | 10° |
| 2026-05-06 19:12 | -18.12179 | -48.08774 | 9061 ft | 167 kts | 9° |
| 2026-05-06 19:12 | -18.11021 | -48.08638 | 9068 ft | 167 kts | 10° |
| 2026-05-06 19:12 | -18.09862 | -48.08502 | 9069 ft | 168 kts | 10° |
| 2026-05-06 19:13 | -18.08710 | -48.08369 | 9066 ft | 169 kts | 9° |
| 2026-05-06 19:13 | -18.07546 | -48.08235 | 9063 ft | 168 kts | 9° |
| 2026-05-06 19:13 | -18.06390 | -48.08095 | 9063 ft | 167 kts | 10° |
| 2026-05-06 19:13 | -18.05239 | -48.07958 | 9065 ft | 167 kts | 10° |
| 2026-05-06 19:14 | -18.04082 | -48.07821 | 9064 ft | 168 kts | 10° |
| 2026-05-06 19:14 | -18.02919 | -48.07685 | 9059 ft | 168 kts | 9° |
| 2026-05-06 19:14 | -18.02135 | -48.07595 | 9069 ft | 168 kts | 9° |
| 2026-05-06 19:14 | -18.00600 | -48.07416 | 9063 ft | 168 kts | 9° |
| 2026-05-06 19:15 | -17.99834 | -48.07325 | 9069 ft | 168 kts | 10° |
| 2026-05-06 19:15 | -17.98277 | -48.07141 | 9064 ft | 168 kts | 10° |
| 2026-05-06 19:15 | -17.97508 | -48.07051 | 9065 ft | 168 kts | 10° |
| 2026-05-06 19:15 | -17.96347 | -48.06916 | 9064 ft | 167 kts | 10° |
| 2026-05-06 19:16 | -17.95198 | -48.06781 | 9065 ft | 166 kts | 10° |
| 2026-05-06 19:16 | -17.94048 | -48.06647 | 9065 ft | 166 kts | 9° |
| 2026-05-06 19:16 | -17.92914 | -48.06514 | 9065 ft | 166 kts | 9° |
| 2026-05-06 19:16 | -17.91767 | -48.06380 | 9066 ft | 166 kts | 10° |
| 2026-05-06 19:17 | -17.90618 | -48.06244 | 9065 ft | 166 kts | 10° |
| 2026-05-06 19:17 | -17.89475 | -48.06108 | 9062 ft | 165 kts | 11° |
| 2026-05-06 19:17 | -17.88334 | -48.05976 | 9064 ft | 165 kts | 9° |
| 2026-05-06 19:17 | -17.87188 | -48.05843 | 9069 ft | 166 kts | 10° |
| 2026-05-06 19:18 | -17.86046 | -48.05709 | 9065 ft | 164 kts | 10° |
| 2026-05-06 19:18 | -17.84907 | -48.05577 | 9071 ft | 165 kts | 10° |
| 2026-05-06 19:18 | -17.83762 | -48.05442 | 9066 ft | 165 kts | 10° |
| 2026-05-06 19:18 | -17.82619 | -48.05306 | 9064 ft | 165 kts | 10° |
| 2026-05-06 19:19 | -17.81489 | -48.05175 | 9066 ft | 163 kts | 9° |
| 2026-05-06 19:19 | -17.80358 | -48.05042 | 9067 ft | 164 kts | 10° |
| 2026-05-06 19:19 | -17.79234 | -48.04910 | 9066 ft | 164 kts | 9° |
| 2026-05-06 19:19 | -17.78103 | -48.04780 | 9063 ft | 163 kts | 10° |
| 2026-05-06 19:20 | -17.76971 | -48.04647 | 9071 ft | 164 kts | 10° |
| 2026-05-06 19:20 | -17.75833 | -48.04513 | 9065 ft | 164 kts | 10° |
| 2026-05-06 19:20 | -17.74698 | -48.04381 | 9069 ft | 164 kts | 10° |
| 2026-05-06 19:20 | -17.73564 | -48.04246 | 9067 ft | 164 kts | 10° |
| 2026-05-06 19:21 | -17.72422 | -48.04114 | 9066 ft | 166 kts | 9° |
| 2026-05-06 19:21 | -17.71279 | -48.03979 | 9068 ft | 166 kts | 11° |
| 2026-05-06 19:21 | -17.70134 | -48.03845 | 9070 ft | 164 kts | 9° |
| 2026-05-06 19:21 | -17.68996 | -48.03713 | 9070 ft | 164 kts | 9° |
| 2026-05-06 19:22 | -17.67856 | -48.03582 | 9071 ft | 165 kts | 9° |
| 2026-05-06 19:22 | -17.66714 | -48.03447 | 9066 ft | 165 kts | 9° |
| 2026-05-06 19:22 | -17.65578 | -48.03314 | 9068 ft | 164 kts | 9° |
| 2026-05-06 19:22 | -17.64458 | -48.03182 | 9073 ft | 165 kts | 10° |
| 2026-05-06 19:23 | -17.63321 | -48.03049 | 9070 ft | 164 kts | 9° |
| 2026-05-06 19:23 | -17.62194 | -48.02918 | 9071 ft | 163 kts | 10° |
| 2026-05-06 19:23 | -17.61066 | -48.02787 | 9073 ft | 164 kts | 10° |
| 2026-05-06 19:23 | -17.59930 | -48.02655 | 9074 ft | 165 kts | 9° |
| 2026-05-06 19:24 | -17.58790 | -48.02520 | 9074 ft | 164 kts | 9° |
| 2026-05-06 19:24 | -17.57649 | -48.02387 | 9072 ft | 165 kts | 10° |
| 2026-05-06 19:24 | -17.56505 | -48.02253 | 9071 ft | 165 kts | 10° |
| 2026-05-06 19:24 | -17.55366 | -48.02120 | 9068 ft | 165 kts | 10° |
| 2026-05-06 19:25 | -17.54232 | -48.01990 | 9068 ft | 163 kts | 9° |
| 2026-05-06 19:25 | -17.53099 | -48.01857 | 9068 ft | 164 kts | 10° |
| 2026-05-06 19:25 | -17.51965 | -48.01724 | 9069 ft | 163 kts | 10° |
| 2026-05-06 19:25 | -17.50856 | -48.01594 | 9074 ft | 162 kts | 10° |
| 2026-05-06 19:26 | -17.49736 | -48.01464 | 9072 ft | 162 kts | 10° |
| 2026-05-06 19:26 | -17.48613 | -48.01332 | 9077 ft | 163 kts | 11° |
| 2026-05-06 19:26 | -17.47481 | -48.01200 | 9074 ft | 164 kts | 10° |
| 2026-05-06 19:26 | -17.46346 | -48.01067 | 9069 ft | 164 kts | 10° |
| 2026-05-06 19:27 | -17.45213 | -48.00937 | 9072 ft | 164 kts | 10° |
| 2026-05-06 19:27 | -17.44075 | -48.00804 | 9077 ft | 165 kts | 9° |
| 2026-05-06 19:27 | -17.42936 | -48.00672 | 9076 ft | 165 kts | 10° |
| 2026-05-06 19:27 | -17.41794 | -48.00538 | 9077 ft | 164 kts | 10° |
| 2026-05-06 19:28 | -17.40671 | -48.00406 | 9067 ft | 164 kts | 11° |
| 2026-05-06 19:28 | -17.39538 | -48.00273 | 9070 ft | 164 kts | 9° |
| 2026-05-06 19:28 | -17.38405 | -48.00142 | 9070 ft | 164 kts | 10° |
| 2026-05-06 19:28 | -17.37267 | -48.00010 | 9074 ft | 165 kts | 10° |
| 2026-05-06 19:29 | -17.36125 | -47.99875 | 9075 ft | 165 kts | 10° |
| 2026-05-06 19:29 | -17.34984 | -47.99742 | 9074 ft | 164 kts | 10° |
| 2026-05-06 19:29 | -17.33848 | -47.99613 | 9073 ft | 164 kts | 9° |
| 2026-05-06 19:29 | -17.32711 | -47.99481 | 9070 ft | 164 kts | 10° |
| 2026-05-06 19:30 | -17.31595 | -47.99350 | 9069 ft | 163 kts | 10° |
| 2026-05-06 19:30 | -17.30466 | -47.99219 | 9070 ft | 163 kts | 10° |
| 2026-05-06 19:30 | -17.29338 | -47.99087 | 9072 ft | 163 kts | 10° |
| 2026-05-06 19:30 | -17.28209 | -47.98955 | 9074 ft | 163 kts | 10° |
| 2026-05-06 19:31 | -17.27079 | -47.98822 | 9070 ft | 163 kts | 10° |
| 2026-05-06 19:31 | -17.25949 | -47.98692 | 9076 ft | 163 kts | 9° |
| 2026-05-06 19:31 | -17.23680 | -47.98430 | 9076 ft | 164 kts | 10° |
| 2026-05-06 19:32 | -17.22550 | -47.98296 | 9074 ft | 163 kts | 9° |
| 2026-05-06 19:32 | -17.21423 | -47.98166 | 9075 ft | 163 kts | 9° |
| 2026-05-06 19:32 | -17.20294 | -47.98037 | 9079 ft | 163 kts | 10° |
| 2026-05-06 19:32 | -17.19160 | -47.97901 | 9072 ft | 164 kts | 10° |
| 2026-05-06 19:33 | -17.18023 | -47.97768 | 9076 ft | 164 kts | 9° |
| 2026-05-06 19:33 | -17.16899 | -47.97638 | 9069 ft | 164 kts | 9° |
| 2026-05-06 19:33 | -17.15768 | -47.97508 | 9067 ft | 162 kts | 10° |
| 2026-05-06 19:33 | -17.14650 | -47.97379 | 9070 ft | 162 kts | 10° |
| 2026-05-06 19:34 | -17.13529 | -47.97250 | 9067 ft | 162 kts | 9° |
| 2026-05-06 19:34 | -17.12406 | -47.97119 | 9068 ft | 161 kts | 10° |
| 2026-05-06 19:34 | -17.11290 | -47.96987 | 9069 ft | 162 kts | 10° |
| 2026-05-06 19:34 | -17.10167 | -47.96858 | 9070 ft | 162 kts | 9° |
| 2026-05-06 19:35 | -17.09058 | -47.96729 | 9073 ft | 163 kts | 9° |
| 2026-05-06 19:35 | -17.07928 | -47.96596 | 9074 ft | 164 kts | 9° |
| 2026-05-06 19:35 | -17.06791 | -47.96466 | 9076 ft | 164 kts | 10° |
| 2026-05-06 19:35 | -17.05652 | -47.96333 | 9076 ft | 165 kts | 10° |
| 2026-05-06 19:36 | -17.04512 | -47.96198 | 9075 ft | 164 kts | 10° |
| 2026-05-06 19:36 | -17.03376 | -47.96069 | 9076 ft | 165 kts | 10° |
| 2026-05-06 19:36 | -17.02232 | -47.95935 | 9076 ft | 166 kts | 11° |
| 2026-05-06 19:36 | -17.01087 | -47.95803 | 9074 ft | 166 kts | 9° |
| 2026-05-06 19:37 | -16.99936 | -47.95670 | 9074 ft | 166 kts | 10° |
| 2026-05-06 19:37 | -16.98802 | -47.95539 | 9074 ft | 166 kts | 10° |
| 2026-05-06 19:37 | -16.97650 | -47.95403 | 9072 ft | 166 kts | 9° |
| 2026-05-06 19:37 | -16.96502 | -47.95271 | 9074 ft | 166 kts | 11° |
| 2026-05-06 19:38 | -16.95351 | -47.95138 | 9074 ft | 166 kts | 10° |
| 2026-05-06 19:38 | -16.94201 | -47.95005 | 9075 ft | 166 kts | 9° |
| 2026-05-06 19:38 | -16.93050 | -47.94872 | 9074 ft | 167 kts | 9° |
| 2026-05-06 19:38 | -16.91894 | -47.94736 | 9078 ft | 167 kts | 9° |
| 2026-05-06 19:39 | -16.90740 | -47.94600 | 9072 ft | 166 kts | 10° |
| 2026-05-06 19:39 | -16.89589 | -47.94469 | 9077 ft | 166 kts | 9° |
| 2026-05-06 19:39 | -16.88441 | -47.94336 | 9073 ft | 165 kts | 10° |
| 2026-05-06 19:39 | -16.87291 | -47.94202 | 9074 ft | 166 kts | 10° |
| 2026-05-06 19:40 | -16.86140 | -47.94068 | 9073 ft | 166 kts | 9° |
| 2026-05-06 19:40 | -16.85014 | -47.93940 | 9072 ft | 165 kts | 10° |
| 2026-05-06 19:40 | -16.83860 | -47.93808 | 9073 ft | 165 kts | 10° |
| 2026-05-06 19:40 | -16.82734 | -47.93676 | 9075 ft | 165 kts | 10° |
| 2026-05-06 19:41 | -16.81588 | -47.93543 | 9069 ft | 166 kts | 10° |
| 2026-05-06 19:41 | -16.80448 | -47.93410 | 9074 ft | 166 kts | 11° |
| 2026-05-06 19:41 | -16.79293 | -47.93275 | 9073 ft | 167 kts | 10° |
| 2026-05-06 19:41 | -16.78134 | -47.93149 | 9070 ft | 167 kts | 7° |
| 2026-05-06 19:42 | -16.76971 | -47.93220 | 9070 ft | 168 kts | 359° |
| 2026-05-06 19:42 | -16.75805 | -47.93313 | 9075 ft | 168 kts | 360° |
| 2026-05-06 19:42 | -16.74633 | -47.93399 | 9071 ft | 168 kts | 0° |
| 2026-05-06 19:42 | -16.73471 | -47.93487 | 9071 ft | 167 kts | 360° |
| 2026-05-06 19:43 | -16.72325 | -47.93576 | 9074 ft | 167 kts | 360° |
| 2026-05-06 19:43 | -16.71157 | -47.93664 | 9075 ft | 169 kts | 360° |
| 2026-05-06 19:43 | -16.69981 | -47.93755 | 9073 ft | 169 kts | 0° |
| 2026-05-06 19:43 | -16.68810 | -47.93845 | 9077 ft | 169 kts | 360° |
| 2026-05-06 19:44 | -16.67635 | -47.93935 | 9077 ft | 169 kts | 360° |
| 2026-05-06 19:44 | -16.66460 | -47.94025 | 9077 ft | 169 kts | 359° |
| 2026-05-06 19:44 | -16.65288 | -47.94114 | 9080 ft | 169 kts | 360° |
| 2026-05-06 19:44 | -16.64111 | -47.94201 | 9074 ft | 169 kts | 360° |
| 2026-05-06 19:45 | -16.62937 | -47.94292 | 9071 ft | 169 kts | 0° |
| 2026-05-06 19:45 | -16.61769 | -47.94381 | 9075 ft | 168 kts | 0° |
| 2026-05-06 19:45 | -16.60600 | -47.94470 | 9076 ft | 169 kts | 360° |
| 2026-05-06 19:45 | -16.59428 | -47.94558 | 9074 ft | 169 kts | 0° |
| 2026-05-06 19:46 | -16.58256 | -47.94648 | 9075 ft | 169 kts | 0° |
| 2026-05-06 19:46 | -16.57084 | -47.94739 | 9077 ft | 169 kts | 0° |
| 2026-05-06 19:46 | -16.55913 | -47.94827 | 9078 ft | 169 kts | 360° |
| 2026-05-06 19:46 | -16.54741 | -47.94916 | 9077 ft | 169 kts | 360° |
| 2026-05-06 19:47 | -16.53563 | -47.95007 | 9076 ft | 170 kts | 0° |
| 2026-05-06 19:47 | -16.52400 | -47.95096 | 9077 ft | 169 kts | 360° |
| 2026-05-06 19:47 | -16.51226 | -47.95185 | 9077 ft | 169 kts | 0° |
| 2026-05-06 19:47 | -16.50050 | -47.95275 | 9073 ft | 169 kts | 0° |
| 2026-05-06 19:48 | -16.48879 | -47.95363 | 9080 ft | 169 kts | 0° |
| 2026-05-06 19:48 | -16.47704 | -47.95452 | 9075 ft | 170 kts | 0° |
| 2026-05-06 19:48 | -16.46524 | -47.95543 | 9073 ft | 170 kts | 0° |
| 2026-05-06 19:48 | -16.45351 | -47.95632 | 9073 ft | 169 kts | 0° |
| 2026-05-06 19:49 | -16.44180 | -47.95721 | 9077 ft | 169 kts | 360° |
| 2026-05-06 19:49 | -16.43006 | -47.95812 | 9074 ft | 169 kts | 0° |
| 2026-05-06 19:49 | -16.41835 | -47.95900 | 9022 ft | 171 kts | 0° |
| 2026-05-06 19:49 | -16.40596 | -47.95989 | 8651 ft | 182 kts | 360° |
| 2026-05-06 19:50 | -16.39320 | -47.96081 | 8285 ft | 185 kts | 0° |
| 2026-05-06 19:50 | -16.38032 | -47.96179 | 7934 ft | 186 kts | 360° |
| 2026-05-06 19:50 | -16.36774 | -47.96280 | 7782 ft | 175 kts | 360° |
| 2026-05-06 19:50 | -16.35604 | -47.96377 | 7647 ft | 166 kts | 360° |
| 2026-05-06 19:51 | -16.34460 | -47.96466 | 7520 ft | 164 kts | 0° |
| 2026-05-06 19:51 | -16.33327 | -47.96552 | 7393 ft | 162 kts | 0° |
| 2026-05-06 19:51 | -16.32204 | -47.96636 | 7269 ft | 162 kts | 360° |
| 2026-05-06 19:51 | -16.31076 | -47.96721 | 7134 ft | 162 kts | 0° |
| 2026-05-06 19:52 | -16.29949 | -47.96803 | 7011 ft | 162 kts | 0° |
| 2026-05-06 19:52 | -16.28821 | -47.96890 | 6877 ft | 162 kts | 0° |
| 2026-05-06 19:52 | -16.27697 | -47.96977 | 6756 ft | 162 kts | 0° |
| 2026-05-06 19:52 | -16.26566 | -47.97037 | 6625 ft | 163 kts | 5° |
| 2026-05-06 19:53 | -16.25435 | -47.97046 | 6513 ft | 163 kts | 4° |
| 2026-05-06 19:53 | -16.24311 | -47.97040 | 6365 ft | 160 kts | 6° |
| 2026-05-06 19:53 | -16.23198 | -47.96990 | 6217 ft | 161 kts | 7° |
| 2026-05-06 19:53 | -16.22095 | -47.96898 | 6080 ft | 160 kts | 13° |
| 2026-05-06 19:54 | -16.20976 | -47.96715 | 5934 ft | 160 kts | 14° |
| 2026-05-06 19:54 | -16.19886 | -47.96538 | 5794 ft | 160 kts | 14° |
| 2026-05-06 19:54 | -16.18777 | -47.96348 | 5662 ft | 163 kts | 14° |
| 2026-05-06 19:54 | -16.17657 | -47.96163 | 5527 ft | 164 kts | 13° |
| 2026-05-06 19:55 | -16.16537 | -47.95970 | 5380 ft | 163 kts | 14° |
| 2026-05-06 19:55 | -16.15415 | -47.95780 | 5237 ft | 163 kts | 14° |
| 2026-05-06 19:55 | -16.14309 | -47.95585 | 5099 ft | 160 kts | 15° |
| 2026-05-06 19:55 | -16.13329 | -47.95140 | 4956 ft | 152 kts | 52° |
| 2026-05-06 19:56 | -16.12851 | -47.94207 | 4934 ft | 142 kts | 70° |
| 2026-05-06 19:56 | -16.12496 | -47.93274 | 4937 ft | 137 kts | 71° |
| 2026-05-06 19:56 | -16.12131 | -47.92368 | 4931 ft | 135 kts | 70° |
| 2026-05-06 19:56 | -16.11801 | -47.91477 | 4935 ft | 130 kts | 72° |
| 2026-05-06 19:57 | -16.11485 | -47.90602 | 4946 ft | 130 kts | 70° |
| 2026-05-06 19:57 | -16.11175 | -47.89733 | 4934 ft | 129 kts | 70° |
| 2026-05-06 19:57 | -16.10881 | -47.88877 | 4889 ft | 124 kts | 69° |
| 2026-05-06 19:57 | -16.10503 | -47.88084 | 4895 ft | 122 kts | 65° |
| 2026-05-06 19:58 | -16.10112 | -47.87298 | 4897 ft | 122 kts | 65° |
| 2026-05-06 19:58 | -16.09713 | -47.86502 | 4895 ft | 125 kts | 65° |
| 2026-05-06 19:58 | -16.09309 | -47.85694 | 4895 ft | 126 kts | 64° |
| 2026-05-06 19:58 | -16.08891 | -47.84886 | 4901 ft | 127 kts | 64° |
| 2026-05-06 19:59 | -16.08475 | -47.84082 | 4902 ft | 126 kts | 64° |
| 2026-05-06 19:59 | -16.08052 | -47.83286 | 4901 ft | 125 kts | 63° |
| 2026-05-06 19:59 | -16.07647 | -47.82487 | 4908 ft | 127 kts | 64° |
| 2026-05-06 19:59 | -16.07219 | -47.81672 | 4904 ft | 130 kts | 64° |
| 2026-05-06 20:00 | -16.06793 | -47.80842 | 4906 ft | 131 kts | 64° |
| 2026-05-06 20:00 | -16.06376 | -47.79995 | 4905 ft | 132 kts | 65° |
| 2026-05-06 20:00 | -16.05945 | -47.79169 | 4906 ft | 131 kts | 62° |
| 2026-05-06 20:00 | -16.05477 | -47.78350 | 4904 ft | 133 kts | 62° |
| 2026-05-06 20:01 | -16.04977 | -47.77531 | 4908 ft | 134 kts | 60° |
| 2026-05-06 20:01 | -16.04477 | -47.76711 | 4900 ft | 134 kts | 61° |
| 2026-05-06 20:01 | -16.03971 | -47.75899 | 4906 ft | 132 kts | 61° |
| 2026-05-06 20:01 | -16.03468 | -47.75098 | 4905 ft | 133 kts | 60° |
| 2026-05-06 20:02 | -16.02966 | -47.74283 | 4906 ft | 135 kts | 61° |
| 2026-05-06 20:02 | -16.02468 | -47.73464 | 4900 ft | 133 kts | 61° |
| 2026-05-06 20:02 | -16.01979 | -47.72665 | 4944 ft | 131 kts | 61° |
| 2026-05-06 20:02 | -16.01509 | -47.71861 | 4946 ft | 129 kts | 63° |
| 2026-05-06 20:03 | -16.01056 | -47.71041 | 4946 ft | 132 kts | 63° |
| 2026-05-06 20:03 | -16.00592 | -47.70223 | 4942 ft | 130 kts | 62° |
| 2026-05-06 20:03 | -16.00011 | -47.69538 | 4935 ft | 131 kts | 29° |
| 2026-05-06 20:03 | -15.99101 | -47.69589 | 4944 ft | 141 kts | 333° |
| 2026-05-06 20:04 | -15.98305 | -47.70185 | 4950 ft | 140 kts | 325° |
| 2026-05-06 20:04 | -15.97522 | -47.70798 | 4965 ft | 142 kts | 322° |
| 2026-05-06 20:04 | -15.96851 | -47.71563 | 4920 ft | 147 kts | 309° |
| 2026-05-06 20:04 | -15.96431 | -47.72135 | 4833 ft | 153 kts | 309° |
| 2026-05-06 20:05 | -15.95698 | -47.72945 | 4700 ft | 157 kts | 333° |
| 2026-05-06 20:05 | -15.94654 | -47.73117 | 4571 ft | 153 kts | 18° |
| 2026-05-06 20:05 | -15.93707 | -47.72702 | 4512 ft | 145 kts | 30° |
| 2026-05-06 20:05 | -15.92795 | -47.72273 | 4447 ft | 144 kts | 28° |
| 2026-05-06 20:06 | -15.91949 | -47.71728 | 4353 ft | 142 kts | 53° |
| 2026-05-06 20:06 | -15.91758 | -47.70816 | 4356 ft | 129 kts | 108° |
| 2026-05-06 20:06 | -15.92392 | -47.70241 | 4348 ft | 127 kts | 168° |
| 2026-05-06 20:06 | -15.93208 | -47.70554 | 4353 ft | 133 kts | 227° |
| 2026-05-06 20:07 | -15.93572 | -47.71430 | 4374 ft | 134 kts | 249° |
| 2026-05-06 20:07 | -15.93870 | -47.72347 | 4378 ft | 135 kts | 250° |
| 2026-05-06 20:07 | -15.94155 | -47.73262 | 4372 ft | 131 kts | 250° |
| 2026-05-06 20:07 | -15.94428 | -47.74145 | 4381 ft | 129 kts | 249° |
| 2026-05-06 20:08 | -15.94700 | -47.75026 | 4375 ft | 127 kts | 249° |
| 2026-05-06 20:08 | -15.94953 | -47.75896 | 4379 ft | 126 kts | 256° |
| 2026-05-06 20:08 | -15.94758 | -47.76791 | 4384 ft | 131 kts | 299° |
| 2026-05-06 20:08 | -15.94344 | -47.77649 | 4392 ft | 135 kts | 298° |
| 2026-05-06 20:09 | -15.93744 | -47.78370 | 4325 ft | 134 kts | 340° |
| 2026-05-06 20:09 | -15.92888 | -47.78349 | 4232 ft | 120 kts | 27° |
| 2026-05-06 20:09 | -15.92165 | -47.77980 | 4124 ft | 111 kts | 46° |
| 2026-05-06 20:09 | -15.91999 | -47.77300 | 4014 ft | 102 kts | 110° |
| 2026-05-06 20:10 | -15.92298 | -47.76639 | 3922 ft | 101 kts | 107° |
| 2026-05-06 20:10 | -15.92465 | -47.75916 | 3749 ft | 104 kts | 98° |
| 2026-05-06 20:10 | -15.92577 | -47.75214 | 3608 ft | 97 kts | 103° |
| 2026-05-06 20:10 | -15.92798 | -47.74578 | 3607 ft | 87 kts | 111° |
| 2026-05-06 20:11 | -15.93070 | -47.73964 | 3560 ft | 96 kts | 113° |
| 2026-05-06 20:11 | -15.93345 | -47.73330 | 3458 ft | 95 kts | 115° |
| 2026-05-06 20:11 | -15.93675 | -47.72798 | 3405 ft | 77 kts | 119° |
| 2026-05-06 20:11 | -15.93845 | -47.72503 | 3391 ft | 22 kts | 133° |
| 2026-05-06 20:12 | -15.93901 | -47.72510 | 3390 ft | 7 kts | 288° |
| 2026-05-06 20:12 | -15.93870 | -47.72560 | 3392 ft | 11 kts | 303° |
| 2026-05-06 20:12 | -15.93819 | -47.72649 | 3395 ft | 9 kts | 255° |
| 2026-05-06 20:12 | -15.93834 | -47.72666 | 3395 ft | 0 kts | 218° |